createdAt,value
2022-10-06T00:03:31.008Z,4.45
2022-10-06T00:06:02.445Z,4.47
2022-10-06T00:08:31.392Z,4.50
2022-10-06T00:10:58.917Z,4.18
2022-10-06T00:13:26.022Z,4.05
2022-10-06T00:15:52.752Z,3.55
2022-10-06T00:18:19.925Z,4.45
2022-10-06T00:20:53.909Z,4.18
2022-10-06T00:23:21.371Z,3.78
2022-10-06T00:28:14.860Z,3.60
2022-10-06T00:30:41.936Z,4.05
2022-10-06T00:33:12.761Z,4.90
2022-10-06T00:35:40.053Z,5.15
2022-10-06T00:38:06.546Z,4.22
2022-10-06T00:43:03.183Z,3.63
2022-10-06T00:45:37.592Z,3.88
2022-10-06T00:48:16.667Z,3.50
2022-10-06T00:50:44.320Z,3.55
2022-10-06T00:53:11.820Z,5.00
2022-10-06T00:55:38.349Z,6.30
2022-10-06T01:00:33.466Z,6.70
2022-10-06T01:03:15.809Z,6.50
2022-10-06T01:05:47.468Z,6.20
2022-10-06T01:08:15.487Z,6.15
2022-10-06T01:10:42.871Z,5.22
2022-10-06T01:13:11.250Z,5.75
2022-10-06T01:15:44.458Z,5.70
2022-10-06T01:18:14.905Z,5.55
2022-10-06T01:20:47.132Z,5.80
2022-10-06T01:23:13.905Z,5.28
2022-10-06T01:25:41.561Z,5.70
2022-10-06T01:28:10.179Z,6.28
2022-10-06T01:30:57.802Z,6.43
2022-10-06T01:33:24.540Z,5.07
2022-10-06T01:35:52.922Z,5.30
2022-10-06T01:38:20.240Z,5.18
2022-10-06T01:40:52.059Z,5.50
2022-10-06T01:43:19.542Z,4.95
2022-10-06T01:45:53.015Z,5.15
2022-10-06T01:48:19.691Z,4.93
2022-10-06T01:50:47.436Z,5.38
2022-10-06T01:55:41.572Z,5.40
2022-10-06T01:58:09.813Z,4.80
2022-10-06T02:00:36.790Z,5.03
2022-10-06T02:03:03.408Z,4.80
2022-10-06T02:07:56.475Z,4.13
2022-10-06T02:10:23.969Z,4.25
2022-10-06T02:12:52.936Z,4.25
2022-10-06T02:15:21.794Z,4.72
2022-10-06T02:17:48.600Z,3.55
2022-10-06T02:20:15.937Z,3.40
2022-10-06T02:22:43.770Z,5.13
2022-10-06T02:25:14.684Z,5.50
2022-10-06T02:27:41.386Z,5.18
2022-10-06T02:30:10.743Z,5.38
2022-10-06T02:32:39.694Z,5.57
2022-10-06T02:35:09.036Z,5.68
2022-10-06T02:37:35.743Z,5.40
2022-10-06T02:40:02.817Z,5.00
2022-10-06T02:42:30.993Z,4.35
2022-10-06T02:47:25.895Z,5.28
2022-10-06T02:49:53.561Z,5.30
2022-10-06T02:52:20.154Z,5.20
2022-10-06T02:54:48.010Z,5.28
2022-10-06T02:59:42.983Z,5.30
2022-10-06T03:02:09.795Z,5.85
2022-10-06T03:04:36.572Z,5.43
2022-10-06T03:07:03.370Z,4.75
2022-10-06T03:09:35.082Z,5.68
2022-10-06T03:12:01.823Z,5.07
2022-10-06T03:14:39.988Z,4.35
2022-10-06T03:17:11.383Z,4.57
2022-10-06T03:19:44.659Z,4.07
2022-10-06T03:24:51.302Z,4.55
2022-10-06T03:29:46.029Z,4.78
2022-10-06T03:32:13.521Z,4.70
2022-10-06T03:34:40.328Z,4.70
2022-10-06T03:37:10.375Z,4.38
2022-10-06T03:42:03.572Z,3.90
2022-10-06T03:44:32.286Z,4.28
2022-10-06T03:46:58.994Z,4.65
2022-10-06T03:49:28.493Z,5.57
2022-10-06T03:51:55.259Z,5.50
2022-10-06T03:54:27.378Z,5.95
2022-10-06T03:56:54.416Z,5.30
2022-10-06T03:59:20.979Z,4.57
2022-10-06T04:01:50.023Z,4.85
2022-10-06T04:04:20.882Z,4.53
2022-10-06T04:06:51.388Z,4.53
2022-10-06T04:09:19.704Z,5.15
2022-10-06T04:11:47.970Z,4.07
2022-10-06T04:14:16.348Z,4.47
2022-10-06T04:16:49.449Z,4.65
2022-10-06T04:19:20.985Z,5.63
2022-10-06T04:21:53.488Z,5.15
2022-10-06T04:24:24.573Z,4.47
2022-10-06T04:26:52.426Z,4.90
2022-10-06T04:29:21.090Z,5.15
2022-10-06T04:31:52.507Z,5.47
2022-10-06T04:34:31.071Z,5.55
2022-10-06T04:36:57.869Z,5.03
2022-10-06T04:39:24.459Z,4.47
2022-10-06T04:44:22.926Z,4.43
2022-10-06T04:46:49.808Z,4.70
2022-10-06T04:49:20.287Z,5.03
2022-10-06T04:51:49.752Z,5.20
2022-10-06T04:54:17.363Z,4.28
2022-10-06T04:56:44.948Z,4.82
2022-10-06T04:59:11.562Z,4.75
2022-10-06T05:01:41.005Z,5.13
2022-10-06T05:04:11.663Z,5.22
2022-10-06T05:06:41.207Z,4.82
2022-10-06T05:09:11.034Z,4.85
2022-10-06T05:11:40.308Z,5.68
2022-10-06T05:14:09.486Z,5.18
2022-10-06T05:16:39.630Z,5.57
2022-10-06T05:19:08.188Z,5.63
2022-10-06T05:21:37.499Z,6.20
2022-10-06T05:24:05.465Z,5.75
2022-10-06T05:26:35.000Z,5.72
2022-10-06T05:29:04.388Z,5.32
2022-10-06T05:31:33.270Z,5.20
2022-10-06T05:34:02.749Z,5.57
2022-10-06T05:36:31.866Z,5.72
2022-10-06T05:38:59.140Z,5.53
2022-10-06T05:41:29.979Z,5.35
2022-10-06T05:43:59.119Z,5.55
2022-10-06T05:46:28.751Z,6.10
2022-10-06T05:48:58.893Z,7.30
2022-10-06T05:51:31.380Z,7.03
2022-10-06T05:54:00.513Z,7.80
2022-10-06T05:56:29.875Z,7.55
2022-10-06T05:58:58.088Z,6.63
2022-10-06T06:01:31.705Z,6.03
2022-10-06T06:04:04.133Z,6.00
2022-10-06T06:06:39.297Z,6.20
2022-10-06T06:09:18.809Z,7.95
2022-10-06T06:11:49.783Z,7.75
2022-10-06T06:14:40.944Z,7.80
2022-10-06T06:17:08.478Z,7.55
2022-10-06T06:19:35.127Z,6.97
2022-10-06T06:24:29.185Z,7.78
2022-10-06T06:26:55.717Z,7.80
2022-10-06T06:29:24.317Z,8.10
2022-10-06T06:31:51.355Z,7.20
2022-10-06T06:34:17.974Z,6.85
2022-10-06T06:39:17.591Z,6.90
2022-10-06T06:41:46.441Z,6.53
2022-10-06T06:44:28.991Z,5.40
2022-10-06T06:47:02.650Z,5.80
2022-10-06T06:49:29.740Z,6.57
2022-10-06T06:52:04.725Z,6.38
2022-10-06T06:54:33.427Z,6.32
2022-10-06T06:57:09.904Z,6.22
2022-10-06T06:59:38.159Z,7.35
2022-10-06T07:02:06.660Z,11.10
2022-10-06T07:04:37.432Z,11.75
2022-10-06T07:07:05.790Z,9.70
2022-10-06T07:09:35.565Z,9.60
2022-10-06T07:12:11.478Z,7.15
2022-10-06T07:15:01.463Z,7.78
2022-10-06T07:17:48.457Z,6.07
2022-10-06T07:20:34.277Z,6.53
2022-10-06T07:23:19.598Z,6.05
2022-10-06T07:25:46.248Z,5.32
2022-10-06T07:28:16.877Z,5.93
2022-10-06T07:30:44.824Z,5.32
2022-10-06T07:33:15.414Z,6.20
2022-10-06T07:35:43.557Z,7.50
2022-10-06T07:38:10.969Z,9.07
2022-10-06T07:43:41.460Z,7.88
2022-10-06T07:48:49.173Z,9.15
2022-10-06T07:51:18.759Z,7.20
2022-10-06T07:53:50.114Z,7.47
2022-10-06T07:56:25.774Z,7.70
2022-10-06T07:58:56.186Z,7.93
2022-10-06T08:01:22.817Z,7.53
2022-10-06T08:03:50.612Z,7.10
2022-10-06T08:06:18.863Z,7.15
2022-10-06T08:08:52.436Z,7.45
2022-10-06T08:11:20.119Z,5.75
2022-10-06T08:13:48.315Z,4.50
2022-10-06T08:16:20.648Z,4.47
2022-10-06T08:18:53.309Z,5.25
2022-10-06T08:21:23.346Z,5.53
2022-10-06T08:23:51.554Z,5.53
2022-10-06T08:26:20.169Z,5.30
2022-10-06T08:28:50.202Z,5.50
2022-10-06T08:31:18.679Z,5.18
2022-10-06T08:33:46.074Z,5.05
2022-10-06T08:36:16.679Z,4.57
2022-10-06T08:38:43.266Z,5.65
2022-10-06T08:44:05.404Z,5.18
2022-10-06T08:46:39.737Z,4.40
2022-10-06T08:49:11.758Z,4.32
2022-10-06T08:51:54.686Z,3.88
2022-10-06T08:54:58.894Z,4.45
2022-10-06T08:57:52.532Z,4.80
2022-10-06T09:00:21.420Z,5.47
2022-10-06T09:02:49.957Z,4.80
2022-10-06T09:05:25.215Z,4.47
2022-10-06T09:08:19.421Z,4.30
2022-10-06T09:11:10.354Z,4.90
2022-10-06T09:13:53.102Z,5.15
2022-10-06T09:16:28.254Z,4.28
2022-10-06T09:19:14.728Z,3.97
2022-10-06T09:21:49.295Z,7.85
2022-10-06T09:24:18.863Z,6.03
2022-10-06T09:26:49.555Z,4.07
2022-10-06T09:29:16.702Z,4.72
2022-10-06T09:31:47.461Z,5.18
2022-10-06T09:34:21.558Z,4.53
2022-10-06T09:37:01.537Z,4.60
2022-10-06T09:39:33.244Z,4.18
2022-10-06T09:42:19.664Z,4.53
2022-10-06T09:45:03.971Z,3.88
2022-10-06T09:47:34.823Z,3.83
2022-10-06T09:50:20.372Z,4.18
2022-10-06T09:53:03.273Z,3.75
2022-10-06T09:55:43.001Z,4.78
2022-10-06T09:58:52.500Z,4.55
2022-10-06T10:01:25.009Z,4.35
2022-10-06T10:04:15.940Z,3.75
2022-10-06T10:06:41.682Z,4.70
2022-10-06T10:09:23.840Z,4.38
2022-10-06T10:12:31.234Z,4.05
2022-10-06T10:15:04.476Z,4.30
2022-10-06T10:33:11.186Z,4.03
2022-10-06T10:35:45.774Z,3.30
2022-10-06T10:38:19.460Z,2.78
2022-10-06T10:41:06.781Z,3.20
2022-10-06T10:43:45.502Z,3.83
2022-10-06T10:46:34.682Z,3.25
2022-10-06T10:49:07.968Z,2.53
2022-10-06T10:51:46.273Z,2.42
2022-10-06T10:54:18.846Z,2.97
2022-10-06T10:56:49.168Z,3.22
2022-10-06T10:59:23.275Z,2.65
2022-10-06T11:01:59.832Z,2.78
2022-10-06T11:04:26.915Z,2.42
2022-10-06T11:07:02.354Z,2.22
2022-10-06T11:09:40.701Z,1.90
2022-10-06T11:12:13.272Z,2.30
2022-10-06T11:14:45.671Z,2.10
2022-10-06T11:17:47.067Z,2.47
2022-10-06T11:20:45.958Z,2.30
2022-10-06T11:23:38.956Z,2.13
2022-10-06T11:26:28.486Z,2.13
2022-10-06T11:28:59.729Z,2.55
2022-10-06T11:31:44.389Z,2.13
2022-10-06T11:34:11.130Z,2.67
2022-10-06T11:36:43.928Z,2.30
2022-10-06T11:39:23.526Z,2.13
2022-10-06T11:42:00.374Z,3.30
2022-10-06T11:44:37.284Z,3.35
2022-10-06T11:47:10.677Z,3.35
2022-10-06T11:49:51.999Z,2.58
2022-10-06T11:52:18.754Z,2.58
2022-10-06T11:55:07.577Z,2.33
2022-10-06T11:57:35.232Z,2.45
2022-10-06T12:00:02.364Z,2.30
2022-10-06T12:02:33.546Z,3.00
2022-10-06T12:05:28.612Z,8.32
2022-10-06T12:07:55.739Z,7.35
2022-10-06T12:10:28.031Z,4.50
2022-10-06T12:13:31.728Z,3.88
2022-10-06T12:19:28.909Z,2.92
2022-10-06T12:22:26.033Z,2.70
2022-10-06T12:25:00.763Z,2.38
2022-10-06T12:27:44.061Z,2.40
2022-10-06T12:30:27.841Z,2.30
2022-10-06T12:32:59.277Z,2.40
2022-10-06T12:35:34.033Z,2.42
2022-10-06T12:38:05.887Z,2.22
2022-10-06T12:40:38.292Z,1.90
2022-10-06T12:43:17.489Z,2.45
2022-10-06T12:45:48.327Z,2.08
2022-10-06T12:48:57.268Z,2.00
2022-10-06T12:51:35.044Z,2.20
2022-10-06T12:54:24.979Z,2.53
2022-10-06T12:57:16.581Z,1.70
2022-10-06T12:59:43.320Z,2.05
2022-10-06T13:02:09.775Z,2.70
2022-10-06T13:04:40.843Z,2.92
2022-10-06T13:07:33.972Z,2.20
2022-10-06T13:10:15.557Z,1.88
2022-10-06T13:12:46.705Z,1.90
2022-10-06T13:15:16.651Z,2.28
2022-10-06T13:17:50.676Z,2.22
2022-10-06T13:20:24.454Z,2.25
2022-10-06T13:23:10.181Z,2.40
2022-10-06T13:25:44.175Z,2.10
2022-10-06T13:28:26.354Z,2.78
2022-10-06T13:30:58.835Z,3.28
2022-10-06T13:33:31.327Z,2.05
2022-10-06T13:35:58.754Z,2.33
2022-10-06T13:38:25.949Z,2.60
2022-10-06T13:41:17.323Z,2.08
2022-10-06T13:43:49.879Z,2.28
2022-10-06T13:46:20.835Z,2.85
2022-10-06T13:49:24.718Z,2.28
2022-10-06T13:51:56.897Z,2.10
2022-10-06T13:54:30.666Z,2.30
2022-10-06T13:56:58.730Z,1.67
2022-10-06T13:59:28.063Z,1.65
2022-10-06T14:01:56.000Z,1.58
2022-10-06T14:04:22.708Z,1.80
2022-10-06T14:06:56.032Z,1.73
2022-10-06T14:09:30.403Z,2.40
2022-10-06T14:12:12.534Z,1.65
2022-10-06T14:14:39.512Z,1.52
2022-10-06T14:17:06.238Z,2.08
2022-10-06T14:19:38.987Z,2.15
2022-10-06T14:22:26.327Z,1.65
2022-10-06T14:24:52.825Z,1.70
2022-10-06T14:29:45.685Z,2.97
2022-10-06T14:32:18.109Z,1.92
2022-10-06T14:34:45.040Z,2.30
2022-10-06T14:37:17.618Z,2.30
2022-10-06T14:39:45.484Z,2.20
2022-10-06T14:42:14.401Z,2.80
2022-10-06T14:44:41.053Z,2.55
2022-10-06T14:47:09.222Z,2.83
2022-10-06T14:49:37.673Z,3.10
2022-10-06T14:52:05.541Z,2.47
2022-10-06T14:54:34.504Z,3.13
2022-10-06T14:57:01.113Z,2.22
2022-10-06T15:01:54.593Z,2.27
2022-10-06T15:07:09.866Z,1.90
2022-10-06T15:09:36.414Z,2.08
2022-10-06T15:14:30.128Z,3.23
2022-10-06T15:16:59.962Z,2.80
2022-10-06T15:19:27.162Z,2.63
2022-10-06T15:21:54.494Z,4.40
2022-10-06T15:24:21.240Z,3.03
2022-10-06T15:27:06.880Z,3.85
2022-10-06T15:29:36.732Z,2.50
2022-10-06T15:32:06.591Z,2.88
2022-10-06T15:34:34.395Z,2.05
2022-10-06T15:37:01.466Z,1.70
2022-10-06T15:39:34.570Z,2.00
2022-10-06T15:42:01.322Z,4.30
2022-10-06T15:44:31.691Z,2.47
2022-10-06T15:46:58.425Z,1.98
2022-10-06T15:49:27.006Z,2.10
2022-10-06T15:51:56.743Z,2.40
2022-10-06T15:54:25.701Z,3.50
2022-10-06T15:56:54.613Z,2.20
2022-10-06T15:59:25.589Z,2.75
2022-10-06T16:01:56.872Z,2.70
2022-10-06T16:04:31.171Z,1.98
2022-10-06T16:06:58.691Z,2.22
2022-10-06T16:09:27.671Z,2.10
2022-10-06T16:11:55.913Z,2.10
2022-10-06T16:14:23.173Z,2.10
2022-10-06T16:16:50.229Z,2.78
2022-10-06T16:19:18.103Z,2.00
2022-10-06T16:21:48.397Z,2.40
2022-10-06T16:24:17.036Z,2.33
2022-10-06T16:26:43.728Z,2.25
2022-10-06T16:29:10.316Z,2.28
2022-10-06T16:34:03.785Z,2.97
2022-10-06T16:36:30.484Z,2.83
2022-10-06T16:38:57.485Z,2.72
2022-10-06T16:41:24.428Z,2.88
2022-10-06T16:43:53.327Z,3.10
2022-10-06T16:46:22.682Z,2.50
2022-10-06T16:48:52.029Z,2.40
2022-10-06T16:51:19.643Z,2.60
2022-10-06T16:53:53.893Z,2.20
2022-10-06T16:56:22.122Z,2.55
2022-10-06T16:58:53.422Z,2.80
2022-10-06T17:01:47.567Z,2.50
2022-10-06T17:04:19.681Z,3.05
2022-10-06T17:06:47.460Z,4.93
2022-10-06T17:09:16.707Z,4.20
2022-10-06T17:11:55.268Z,4.32
2022-10-06T17:14:21.979Z,3.88
2022-10-06T17:16:50.871Z,3.88
2022-10-06T17:19:19.004Z,3.92
2022-10-06T17:21:48.042Z,3.50
2022-10-06T17:24:20.347Z,2.85
2022-10-06T17:26:49.050Z,3.10
2022-10-06T17:29:25.930Z,3.13
2022-10-06T17:31:56.259Z,3.28
2022-10-06T17:34:26.517Z,2.65
2022-10-06T17:36:57.280Z,3.20
2022-10-06T17:39:24.480Z,4.03
2022-10-06T17:41:53.426Z,3.35
2022-10-06T17:44:23.440Z,2.90
2022-10-06T17:46:52.372Z,2.90
2022-10-06T17:49:21.232Z,3.47
2022-10-06T17:51:49.175Z,2.88
2022-10-06T17:54:19.228Z,3.70
2022-10-06T17:56:48.188Z,4.32
2022-10-06T17:59:17.573Z,3.85
2022-10-06T18:01:44.998Z,4.63
2022-10-06T18:04:16.060Z,5.18
2022-10-06T18:06:43.814Z,4.60
2022-10-06T18:09:11.149Z,4.70
2022-10-06T18:11:38.853Z,4.93
2022-10-06T18:14:12.668Z,4.60
2022-10-06T18:16:42.200Z,4.93
2022-10-06T18:19:13.217Z,4.70
2022-10-06T18:21:42.149Z,5.78
2022-10-06T18:24:23.194Z,5.13
2022-10-06T18:26:51.356Z,5.53
2022-10-06T18:29:24.037Z,5.35
2022-10-06T18:31:52.144Z,5.70
2022-10-06T18:37:05.907Z,6.07
2022-10-06T18:42:02.903Z,6.70
2022-10-06T18:44:48.649Z,6.13
2022-10-06T18:47:34.045Z,6.20
2022-10-06T18:50:00.661Z,6.03
2022-10-06T18:52:27.499Z,5.78
2022-10-06T18:54:54.003Z,6.53
2022-10-06T18:59:53.402Z,6.07
2022-10-06T19:02:20.054Z,5.93
2022-10-06T19:04:47.950Z,5.60
2022-10-06T19:07:14.471Z,5.45
2022-10-06T19:09:46.170Z,4.72
2022-10-06T19:12:13.280Z,4.97
2022-10-06T19:14:46.970Z,5.35
2022-10-06T19:17:15.067Z,4.80
2022-10-06T19:19:51.054Z,6.25
2022-10-06T19:22:19.954Z,5.97
2022-10-06T19:24:48.471Z,7.30
2022-10-06T19:27:20.717Z,8.23
2022-10-06T19:29:54.255Z,7.93
2022-10-06T19:32:27.575Z,7.53
2022-10-06T19:34:58.744Z,7.22
2022-10-06T19:37:30.323Z,6.70
2022-10-06T19:39:57.294Z,6.70
2022-10-06T19:42:42.537Z,6.22
2022-10-06T19:45:11.669Z,7.25
2022-10-06T19:47:38.362Z,6.60
2022-10-06T19:52:38.864Z,5.38
2022-10-06T19:55:05.646Z,5.22
2022-10-06T19:57:33.560Z,4.35
2022-10-06T20:00:00.402Z,4.05
2022-10-06T20:02:28.546Z,4.28
2022-10-06T20:04:55.032Z,4.85
2022-10-06T20:07:25.299Z,5.32
2022-10-06T20:09:51.780Z,5.35
2022-10-06T20:12:23.619Z,5.32
2022-10-06T20:14:51.261Z,4.50
2022-10-06T20:17:17.709Z,5.03
2022-10-06T20:19:44.201Z,5.07
2022-10-06T20:22:10.618Z,4.78
2022-10-06T20:24:37.063Z,5.53
2022-10-06T20:27:03.594Z,4.45
2022-10-06T20:31:58.758Z,3.63
2022-10-06T20:34:31.827Z,3.95
2022-10-06T20:37:02.506Z,4.80
2022-10-06T20:39:49.716Z,4.68
2022-10-06T20:42:16.908Z,5.07
2022-10-06T20:44:44.269Z,4.75
2022-10-06T20:47:12.202Z,4.40
2022-10-06T20:49:39.195Z,4.50
2022-10-06T20:52:06.203Z,4.07
2022-10-06T20:54:35.389Z,5.20
2022-10-06T20:57:04.550Z,7.32
2022-10-06T20:59:32.055Z,5.82
2022-10-06T21:02:02.795Z,6.95
2022-10-06T21:04:29.459Z,6.88
2022-10-06T21:06:56.134Z,5.93
2022-10-06T21:09:24.300Z,4.70
2022-10-06T21:11:51.375Z,5.43
2022-10-06T21:14:18.269Z,4.60
2022-10-06T21:16:47.823Z,5.00
2022-10-06T21:19:16.789Z,5.10
2022-10-06T21:21:49.843Z,4.30
2022-10-06T21:24:16.712Z,5.20
2022-10-06T21:26:43.314Z,5.38
2022-10-06T21:31:38.447Z,6.57
2022-10-06T21:34:05.169Z,6.35
2022-10-06T21:36:32.249Z,5.88
2022-10-06T21:39:01.387Z,6.15
2022-10-06T21:41:32.009Z,5.97
2022-10-06T21:44:00.878Z,6.40
2022-10-06T21:46:33.491Z,6.25
2022-10-06T21:49:02.465Z,6.10
2022-10-06T21:51:30.489Z,6.32
2022-10-06T21:53:58.800Z,5.97
2022-10-06T21:56:27.318Z,6.65
2022-10-06T21:58:55.919Z,6.57
2022-10-06T22:17:57.291Z,6.82
2022-10-06T22:22:51.541Z,7.40
2022-10-06T22:25:18.165Z,6.90
2022-10-06T22:30:12.501Z,6.28
2022-10-06T22:32:39.616Z,7.30
2022-10-06T22:35:07.332Z,8.57
2022-10-06T22:37:33.911Z,6.70
2022-10-06T22:42:33.401Z,5.53
2022-10-06T22:47:26.508Z,5.47
2022-10-06T22:52:19.905Z,5.32
2022-10-06T22:54:46.500Z,5.22
2022-10-06T22:59:40.385Z,4.47
2022-10-06T23:02:06.986Z,5.25
2022-10-06T23:07:00.257Z,4.20
2022-10-06T23:09:27.003Z,4.53
2022-10-06T23:14:20.288Z,5.53
2022-10-06T23:16:46.972Z,5.45
2022-10-06T23:19:13.743Z,4.75
2022-10-06T23:21:40.446Z,5.57
2022-10-06T23:26:34.354Z,5.05
2022-10-06T23:29:02.477Z,5.85
2022-10-06T23:31:29.576Z,5.53
2022-10-06T23:33:56.681Z,5.53
2022-10-06T23:36:23.777Z,6.35
2022-10-06T23:38:50.569Z,5.78
2022-10-06T23:41:17.388Z,6.50
2022-10-06T23:43:44.189Z,4.97
2022-10-06T23:46:11.431Z,5.47
2022-10-06T23:48:38.122Z,5.38
2022-10-06T23:53:36.050Z,5.15
2022-10-06T23:56:03.555Z,5.32
2022-10-06T23:58:30.218Z,4.88
